createdAt,value
2023-01-29T00:05:25.776Z,99
2023-01-29T00:25:10.203Z,99
2023-01-29T00:35:10.816Z,99
2023-01-29T00:45:11.107Z,99
2023-01-29T00:55:11.984Z,99
2023-01-29T01:05:12.761Z,100
2023-01-29T01:25:13.742Z,100
2023-01-29T01:35:14.037Z,100
2023-01-29T01:45:14.449Z,100
2023-01-29T01:55:14.755Z,100
2023-01-29T02:05:15.568Z,100
2023-01-29T02:15:16.335Z,100
2023-01-29T02:25:16.893Z,100
2023-01-29T02:35:17.754Z,100
2023-01-29T02:45:18.178Z,99
2023-01-29T02:55:19.162Z,100
2023-01-29T03:15:20.471Z,100
2023-01-29T03:25:20.927Z,100
2023-01-29T03:35:21.688Z,100
2023-01-29T03:45:22.140Z,99
2023-01-29T03:55:22.615Z,100
2023-01-29T04:05:23.663Z,99
2023-01-29T04:15:24.157Z,99
2023-01-29T04:25:24.905Z,99
2023-01-29T04:35:25.409Z,100
2023-01-29T04:45:26.457Z,100
2023-01-29T04:55:27.296Z,100
2023-01-29T05:05:28.072Z,99
2023-01-29T05:15:29.134Z,99
2023-01-29T05:35:30.358Z,98
2023-01-29T05:45:31.291Z,97
2023-01-29T05:55:32.305Z,97
2023-01-29T06:05:32.697Z,96
2023-01-29T06:15:33.169Z,96
2023-01-29T06:25:33.405Z,96
2023-01-29T06:35:34.316Z,96
2023-01-29T06:45:34.977Z,96
2023-01-29T06:55:35.547Z,96
2023-01-29T07:05:35.821Z,95
2023-01-29T07:15:37.282Z,95
2023-01-29T07:25:37.603Z,95
2023-01-29T07:35:37.857Z,95
2023-01-29T07:45:38.452Z,95
2023-01-29T07:55:39.460Z,95
2023-01-29T08:05:39.794Z,95
2023-01-29T08:25:41.060Z,95
2023-01-29T08:35:41.266Z,95
2023-01-29T08:45:41.706Z,94
2023-01-29T08:55:42.576Z,94
2023-01-29T09:05:43.354Z,94
2023-01-29T09:15:43.570Z,94
2023-01-29T09:25:44.452Z,94
2023-01-29T09:35:45.395Z,93
2023-01-29T09:45:45.739Z,93
2023-01-29T09:55:45.905Z,93
2023-01-29T10:05:46.539Z,92
2023-01-29T10:15:46.812Z,92
2023-01-29T10:25:47.485Z,92
2023-01-29T10:35:48.511Z,91
2023-01-29T10:45:49.237Z,91
2023-01-29T10:55:49.867Z,91
2023-01-29T11:05:49.972Z,91
2023-01-29T11:15:50.530Z,90
2023-01-29T11:25:51.240Z,90
2023-01-29T11:35:59.734Z,90
2023-01-29T11:45:59.933Z,90
2023-01-29T11:56:00.862Z,89
2023-01-29T12:06:01.219Z,89
2023-01-29T12:16:01.703Z,89
2023-01-29T12:26:02.341Z,88
2023-01-29T12:36:02.525Z,88
2023-01-29T12:46:03.463Z,88
2023-01-29T12:56:04.015Z,87
2023-01-29T13:06:04.601Z,88
2023-01-29T13:16:05.464Z,88
2023-01-29T13:26:05.671Z,88
2023-01-29T13:36:05.927Z,87
2023-01-29T13:46:06.759Z,88
2023-01-29T14:06:08.046Z,87
2023-01-29T14:16:08.790Z,87
2023-01-29T14:26:09.589Z,86
2023-01-29T14:36:10.036Z,86
2023-01-29T14:46:10.668Z,86
2023-01-29T14:56:11.107Z,86
2023-01-29T15:06:11.493Z,86
2023-01-29T15:16:11.680Z,86
2023-01-29T15:26:12.633Z,87
2023-01-29T15:36:12.819Z,87
2023-01-29T15:46:13.341Z,87
2023-01-29T15:56:13.651Z,87
2023-01-29T16:06:14.284Z,87
2023-01-29T16:16:15.057Z,87
2023-01-29T16:26:15.738Z,88
2023-01-29T16:36:16.177Z,88
2023-01-29T16:56:17.893Z,88
2023-01-29T17:06:18.152Z,89
2023-01-29T17:16:19.175Z,89
2023-01-29T17:26:20.019Z,89
2023-01-29T17:36:20.097Z,89
2023-01-29T17:46:20.825Z,89
2023-01-29T18:06:22.302Z,90
2023-01-29T18:16:22.851Z,91
2023-01-29T18:26:23.092Z,91
2023-01-29T18:36:23.338Z,92
2023-01-29T18:46:23.740Z,93
2023-01-29T18:56:24.242Z,93
2023-01-29T19:06:24.774Z,94
2023-01-29T19:16:25.339Z,94
2023-01-29T19:26:25.792Z,95
2023-01-29T19:36:26.784Z,96
2023-01-29T19:46:27.712Z,95
2023-01-29T19:56:28.586Z,95
2023-01-29T20:06:28.794Z,94
2023-01-29T20:16:29.220Z,93
2023-01-29T20:26:30.051Z,93
2023-01-29T20:36:30.383Z,93
2023-01-29T20:46:31.156Z,93
2023-01-29T20:56:36.286Z,93
2023-01-29T21:06:32.788Z,94
2023-01-29T21:16:33.684Z,95
2023-01-29T21:36:34.505Z,95
2023-01-29T21:46:35.104Z,96
2023-01-29T22:06:35.614Z,96
2023-01-29T22:16:36.312Z,96
2023-01-29T22:36:36.679Z,97
2023-01-29T22:46:37.743Z,97
2023-01-29T22:56:38.025Z,97
2023-01-29T23:06:39.032Z,98
2023-01-29T23:16:39.165Z,98
2023-01-29T23:26:40.252Z,98
2023-01-29T23:36:40.778Z,98
2023-01-29T23:46:41.001Z,98
2023-01-29T23:56:41.397Z,99
